Time;durP1;ratioP1;P1;durP2;ratioP2;P2;SDS_P1;SDS_P2;PMS_P1;PMS_P2;Temp;Humidity;BMP_temperature;BMP_pressure;BME280_temperature;BME280_humidity;BME280_pressure;Samples;Min_cycle;Max_cycle;Signal;HPM_P1;HPM_P2
2021/06/28 06:02:06;;;;;;;;;3.50;3.00;;;;;19.98;65.46;100797.19;4864658;29;45326;-46
2021/06/28 06:04:32;;;;;;;;;3.75;3.75;;;;;20.00;64.80;100797.13;4866717;29;45331;-45
2021/06/28 06:06:58;;;;;;;;;6.25;4.75;;;;;20.03;64.94;100813.81;4866505;29;45347;-48
2021/06/28 06:09:23;;;;;;;;;3.25;2.00;;;;;20.04;65.08;100822.69;4864615;29;47161;-51
2021/06/28 06:11:49;;;;;;;;;4.00;3.25;;;;;20.03;65.51;100829.81;4863064;29;45486;-48
2021/06/28 06:14:16;;;;;;;;;5.00;3.25;;;;;20.01;65.40;100833.50;4866322;29;45376;-46
2021/06/28 06:16:41;;;;;;;;;6.00;5.00;;;;;20.00;64.93;100831.78;4864869;29;45513;-47
2021/06/28 06:19:06;;;;;;;;;1.00;1.00;;;;;19.95;65.15;100832.88;4865386;29;45356;-46
2021/06/28 06:21:32;;;;;;;;;3.75;3.25;;;;;19.96;65.28;100836.41;4864193;29;45343;-46
2021/06/28 06:23:57;;;;;;;;;4.00;4.00;;;;;19.95;65.36;100853.38;4865696;29;45538;-47
2021/06/28 06:26:23;;;;;;;;;5.75;3.50;;;;;19.94;65.18;100872.97;4864603;29;45466;-46
2021/06/28 06:28:48;;;;;;;;;2.00;2.00;;;;;19.94;65.55;100878.31;4864789;29;45467;-44
2021/06/28 06:31:13;;;;;;;;;5.50;3.00;;;;;19.94;65.21;100878.31;4865262;29;45845;-47
2021/06/28 06:33:39;;;;;;;;;4.00;4.00;;;;;19.92;65.32;100872.19;4869828;29;45394;-47
2021/06/28 06:36:06;;;;;;;;;3.00;3.00;;;;;19.90;65.66;100871.38;4870196;29;45276;-47
2021/06/28 06:38:31;;;;;;;;;3.50;3.25;;;;;19.88;65.38;100890.16;4865448;29;47687;-50
2021/06/28 06:40:57;;;;;;;;;5.50;4.75;;;;;19.84;65.34;100893.06;4865329;29;45245;-46
2021/06/28 06:43:22;;;;;;;;;4.00;3.00;;;;;19.81;65.68;100886.91;4864687;29;45292;-47
2021/06/28 06:45:48;;;;;;;;;3.75;3.75;;;;;19.83;65.86;100884.19;4865482;29;45254;-45
2021/06/28 06:48:13;;;;;;;;;4.00;4.00;;;;;19.83;65.28;100896.66;4865622;29;45169;-46
2021/06/28 06:50:40;;;;;;;;;5.00;4.00;;;;;19.81;65.33;100886.06;4865116;29;45513;-46
2021/06/28 06:53:06;;;;;;;;;6.00;4.75;;;;;19.84;65.43;100879.72;4865798;29;45317;-46
2021/06/28 06:55:34;;;;;;;;;5.25;4.00;;;;;19.86;65.70;100859.16;4864734;29;45256;-47
2021/06/28 06:57:59;;;;;;;;;7.75;5.75;;;;;19.85;65.74;100871.66;4861099;29;46251;-49
2021/06/28 07:00:25;;;;;;;;;6.50;5.50;;;;;19.91;65.31;100883.78;4860915;29;45428;-47
2021/06/28 07:02:50;;;;;;;;;6.00;5.00;;;;;19.91;65.59;100871.34;4865582;29;45222;-45
2021/06/28 07:05:17;;;;;;;;;8.00;4.00;;;;;19.92;65.58;100869.53;4865283;29;45268;-46
2021/06/28 07:07:43;;;;;;;;;5.50;3.75;;;;;19.94;65.53;100870.31;4865405;29;45375;-48
2021/06/28 07:10:13;;;;;;;;;7.75;7.50;;;;;19.97;64.95;100875.47;4864468;29;45484;-46
2021/06/28 07:12:40;;;;;;;;;5.25;4.25;;;;;19.96;65.26;100877.28;4865575;29;45310;-44
2021/06/28 07:15:06;;;;;;;;;7.00;7.00;;;;;19.99;65.58;100884.28;4864922;29;45604;-44
2021/06/28 07:17:32;;;;;;;;;8.00;7.25;;;;;20.03;65.84;100887.66;4865149;29;45501;-44
2021/06/28 07:19:57;;;;;;;;;7.25;5.25;;;;;20.05;65.11;100888.41;4864832;29;45246;-46
2021/06/28 07:22:23;;;;;;;;;5.75;5.75;;;;;20.04;65.08;100884.91;4865472;29;45246;-48
2021/06/28 07:24:49;;;;;;;;;5.75;5.75;;;;;20.06;65.66;100888.34;4864222;29;45559;-48
2021/06/28 07:27:15;;;;;;;;;9.00;7.25;;;;;20.07;65.10;100890.06;4863972;29;46922;-47
2021/06/28 07:29:40;;;;;;;;;7.25;5.00;;;;;20.07;65.00;100884.72;4865161;29;45404;-44
2021/06/28 07:32:06;;;;;;;;;7.50;6.75;;;;;20.10;64.94;100897.91;4864440;29;45304;-47
2021/06/28 07:34:31;;;;;;;;;6.50;5.00;;;;;20.10;65.71;100897.91;4862017;29;45511;-47
2021/06/28 07:36:57;;;;;;;;;6.75;6.00;;;;;20.13;64.83;100900.41;4868521;29;45367;-47
2021/06/28 07:39:22;;;;;;;;;6.00;5.00;;;;;20.17;65.22;100905.59;4867745;29;45325;-46
2021/06/28 07:41:50;;;;;;;;;14.00;8.75;;;;;20.13;65.46;100902.22;4869313;29;45251;-45
2021/06/28 07:44:16;;;;;;;;;9.50;8.75;;;;;20.18;65.06;100899.34;4868006;29;45518;-46
2021/06/28 07:46:42;;;;;;;;;9.00;7.50;;;;;20.19;64.93;100906.38;4868095;29;46047;-47
2021/06/28 07:49:08;;;;;;;;;4.00;3.50;;;;;20.19;65.52;100909.91;4867849;29;45248;-46
2021/06/28 07:51:36;;;;;;;;;6.75;6.75;;;;;20.19;65.29;100909.03;4868187;29;45214;-46
2021/06/28 07:54:03;;;;;;;;;6.50;6.50;;;;;20.21;65.00;100904.50;4867431;29;45490;-46
2021/06/28 07:56:28;;;;;;;;;8.00;7.00;;;;;20.21;64.83;100913.34;4867984;29;45431;-50
2021/06/28 07:58:54;;;;;;;;;5.00;5.00;;;;;20.22;65.43;100893.72;4867608;29;45410;-48
2021/06/28 08:01:20;;;;;;;;;7.75;7.75;;;;;20.26;64.78;100895.31;4865758;29;45272;-50
2021/06/28 08:03:47;;;;;;;;;5.75;5.25;;;;;20.28;65.04;100897.91;4867808;29;45452;-45
2021/06/28 08:06:17;;;;;;;;;4.25;4.00;;;;;20.32;64.75;100904.78;4867758;29;46231;-47
2021/06/28 08:08:44;;;;;;;;;5.75;4.50;;;;;20.35;64.69;100904.66;4867167;29;45321;-48
2021/06/28 08:11:10;;;;;;;;;5.50;4.00;;;;;20.39;64.97;100899.97;4867855;29;45418;-46
2021/06/28 08:13:39;;;;;;;;;6.00;5.00;;;;;20.42;64.82;100905.19;4867537;29;45428;-46
2021/06/28 08:16:05;;;;;;;;;3.50;3.50;;;;;20.45;64.51;100913.00;4867632;29;46353;-46
2021/06/28 08:18:30;;;;;;;;;4.00;4.00;;;;;20.48;64.91;100903.97;4867547;29;45350;-45
2021/06/28 08:20:56;;;;;;;;;6.00;4.50;;;;;20.51;64.94;100902.00;4867737;29;45352;-48
2021/06/28 08:23:21;;;;;;;;;3.75;2.75;;;;;20.55;64.66;100894.69;4867207;29;45549;-46
2021/06/28 08:25:46;;;;;;;;;4.75;4.75;;;;;20.54;64.38;100884.97;4865950;29;45317;-47
2021/06/28 08:28:12;;;;;;;;;4.00;4.00;;;;;20.61;64.26;100884.53;4866258;29;45509;-46
2021/06/28 08:30:37;;;;;;;;;3.75;2.75;;;;;20.67;64.91;100893.19;4867655;29;45342;-48
2021/06/28 08:33:03;;;;;;;;;3.25;3.25;;;;;20.66;64.10;100884.31;4856892;29;45337;-47
2021/06/28 08:35:28;;;;;;;;;3.50;2.50;;;;;20.72;64.64;100899.19;4867522;29;45572;-45
2021/06/28 08:37:54;;;;;;;;;2.25;2.25;;;;;20.76;64.05;100898.06;4867402;29;45352;-50
2021/06/28 08:40:19;;;;;;;;;2.00;2.00;;;;;20.77;64.32;100899.78;4847300;29;45276;-46
2021/06/28 08:42:44;;;;;;;;;2.00;2.00;;;;;20.76;63.80;100895.38;4860751;29;45384;-46
2021/06/28 08:45:11;;;;;;;;;2.25;2.25;;;;;20.82;63.94;100903.06;4867357;29;46093;-49
2021/06/28 08:47:37;;;;;;;;;5.00;3.00;;;;;20.84;64.11;100897.63;4867250;29;45220;-48
2021/06/28 08:50:05;;;;;;;;;2.50;2.00;;;;;20.88;63.96;100901.84;4867280;29;45425;-47
2021/06/28 08:52:35;;;;;;;;;3.00;1.75;;;;;20.91;63.66;100896.34;4867151;29;45271;-46
2021/06/28 08:55:01;;;;;;;;;1.33;1.33;;;;;20.97;63.75;100893.34;4866728;29;45938;-48
2021/06/28 08:57:26;;;;;;;;;1.25;1.25;;;;;21.02;63.04;100893.06;4866824;29;45321;-48
2021/06/28 08:59:52;;;;;;;;;4.00;2.00;;;;;21.05;63.13;100893.75;4866444;29;45486;-47
2021/06/28 09:02:18;;;;;;;;;2.00;2.00;;;;;21.08;63.20;100904.28;4865677;29;45428;-44
2021/06/28 09:05:02;;;;;;;;;1.50;1.50;;;;;21.14;63.44;100905.75;4866921;29;45301;-48
2021/06/28 09:07:28;;;;;;;;;1.00;1.00;;;;;21.23;62.89;100912.38;4865684;29;45318;-49
2021/06/28 09:09:53;;;;;;;;;1.50;1.25;;;;;21.29;62.85;100911.19;4866598;29;45368;-47
2021/06/28 09:12:19;;;;;;;;;3.75;3.00;;;;;21.33;62.38;100900.22;4865611;29;45269;-46
2021/06/28 09:14:47;;;;;;;;;2.25;2.00;;;;;21.39;62.19;100909.72;4866782;29;45510;-47
2021/06/28 09:17:24;;;;;;;;;4.25;1.75;;;;;21.43;62.38;100906.78;4866736;29;45435;-49
2021/06/28 09:20:13;;;;;;;;;2.25;2.25;;;;;21.51;62.16;100905.47;4866597;29;45186;-49
2021/06/28 09:22:39;;;;;;;;;1.50;1.50;;;;;21.58;62.05;100914.91;4866469;29;45467;-48
2021/06/28 09:25:07;;;;;;;;;5.00;5.00;;;;;21.65;62.00;100916.25;4863549;29;46243;-46
2021/06/28 09:27:41;;;;;;;;;2.25;2.25;;;;;21.72;62.23;100919.44;4865525;29;45298;-48
2021/06/28 09:30:16;;;;;;;;;2.25;1.75;;;;;21.79;61.72;100918.13;4866394;29;45484;-45
2021/06/28 09:32:59;;;;;;;;;4.50;3.00;;;;;21.87;61.88;100915.00;4858009;29;45505;-47
2021/06/28 09:35:35;;;;;;;;;2.00;2.00;;;;;21.98;62.11;100919.72;4854492;29;46131;-48
2021/06/28 09:38:27;;;;;;;;;2.00;0.75;;;;;22.03;61.17;100921.16;4866370;29;45305;-49
2021/06/28 09:40:52;;;;;;;;;2.00;2.00;;;;;22.04;61.11;100912.19;4865275;29;45370;-48
2021/06/28 09:43:26;;;;;;;;;1.00;1.00;;;;;22.18;60.66;100927.41;4865225;29;45519;-45
2021/06/28 09:45:56;;;;;;;;;1.00;1.00;;;;;22.24;60.44;100923.53;4866311;29;45984;-50
2021/06/28 09:48:31;;;;;;;;;2.33;1.33;;;;;22.33;60.51;100927.44;4866395;29;45398;-47
2021/06/28 09:51:16;;;;;;;;;0.50;0.50;;;;;22.40;60.63;100926.13;4864919;29;45464;-47
2021/06/28 09:53:41;;;;;;;;;4.75;3.75;;;;;22.47;60.30;100926.66;4865537;29;45473;-46
2021/06/28 09:56:26;;;;;;;;;3.00;2.00;;;;;22.46;60.16;100920.41;4864624;29;48307;-47
2021/06/28 09:58:52;;;;;;;;;3.75;2.75;;;;;22.62;59.86;100939.06;4865190;29;45346;-49
2021/06/28 10:01:23;;;;;;;;;1.67;1.67;;;;;22.71;59.95;100938.50;4865171;29;45366;-44
2021/06/28 10:03:51;;;;;;;;;1.00;1.00;;;;;22.78;59.31;100935.44;4866204;29;45331;-44
2021/06/28 10:08:59;;;;;;;;;1.75;1.00;;;;;22.89;59.52;100933.81;4865443;29;45496;-45
2021/06/28 10:11:27;;;;;;;;;2.00;2.00;;;;;22.93;59.13;100929.13;4866183;29;45487;-46
2021/06/28 10:13:55;;;;;;;;;1.25;1.00;;;;;23.01;58.92;100936.69;4864278;29;45494;-45
2021/06/28 10:16:22;;;;;;;;;2.00;2.00;;;;;23.07;59.16;100947.00;4864467;29;45993;-45
2021/06/28 10:18:49;;;;;;;;;2.25;2.25;;;;;23.12;59.47;100942.22;4865738;29;45359;-45
2021/06/28 10:21:15;;;;;;;;;3.00;1.75;;;;;23.19;59.19;100940.03;4866993;29;45356;-46
2021/06/28 10:23:41;;;;;;;;;4.75;2.25;;;;;23.24;59.15;100945.94;4862798;29;45507;-46
2021/06/28 10:26:06;;;;;;;;;3.25;2.25;;;;;23.32;58.83;100938.28;4875690;29;45439;-46
2021/06/28 10:28:36;;;;;;;;;2.50;2.50;;;;;23.41;59.22;100938.63;4850704;29;45459;-51
2021/06/28 10:31:07;;;;;;;;;4.25;3.00;;;;;23.47;59.13;100935.53;4847578;29;45333;-48
2021/06/28 10:33:34;;;;;;;;;1.00;1.00;;;;;23.54;59.12;100935.03;4847431;29;45579;-46
2021/06/28 10:36:09;;;;;;;;;2.00;2.00;;;;;23.60;59.12;100936.47;4847135;29;45319;-46
2021/06/28 10:38:49;;;;;;;;;4.00;2.00;;;;;23.70;59.00;100942.09;4847354;29;45345;-49
2021/06/28 10:41:34;;;;;;;;;1.25;1.25;;;;;23.76;58.96;100938.13;4846271;29;45285;-46
2021/06/28 10:43:59;;;;;;;;;1.00;1.00;;;;;23.78;58.86;100928.16;4863996;29;45502;-47
2021/06/28 10:46:34;;;;;;;;;2.00;2.00;;;;;23.84;58.92;100927.75;4866628;29;45487;-45
2021/06/28 10:48:59;;;;;;;;;1.33;1.33;;;;;23.88;58.89;100939.13;4857884;29;45638;-45
2021/06/28 10:51:48;;;;;;;;;2.75;1.50;;;;;23.91;58.87;100936.22;4863553;29;45490;-45
2021/06/28 10:54:19;;;;;;;;;2.00;2.00;;;;;23.94;58.62;100931.56;4865224;29;45320;-47
2021/06/28 10:56:52;;;;;;;;;2.25;2.25;;;;;23.97;58.61;100928.66;4863948;29;46352;-47
2021/06/28 10:59:23;;;;;;;;;2.00;2.00;;;;;23.99;58.62;100929.41;4865029;29;45420;-46
2021/06/28 11:01:55;;;;;;;;;1.00;1.00;;;;;24.01;58.46;100934.69;4864186;29;45351;-44
2021/06/28 11:04:27;;;;;;;;;1.00;1.00;;;;;24.02;58.32;100923.84;4858325;29;45288;-45
2021/06/28 11:06:59;;;;;;;;;1.00;1.00;;;;;23.99;58.46;100916.00;4869860;29;46547;-44
2021/06/28 11:09:44;;;;;;;;;1.00;1.00;;;;;24.04;58.33;100921.06;4868176;29;45427;-43
2021/06/28 11:12:22;;;;;;;;;1.00;1.00;;;;;24.09;58.42;100920.75;4868499;29;45371;-48
2021/06/28 11:15:23;;;;;;;;;0.75;0.75;;;;;24.18;58.51;100923.66;4868492;29;45321;-46
2021/06/28 11:17:56;;;;;;;;;2.00;1.25;;;;;24.31;58.27;100918.31;4868216;29;45540;-47
2021/06/28 11:20:37;;;;;;;;;1.50;1.50;;;;;24.45;58.64;100921.84;4867386;29;45547;-46
2021/06/28 11:23:13;;;;;;;;;1.00;1.00;;;;;24.58;58.44;100911.09;4847831;29;45412;-46
2021/06/28 11:25:38;;;;;;;;;1.50;0.25;;;;;24.74;58.72;100918.94;4866710;29;45359;-46
2021/06/28 11:28:04;;;;;;;;;2.00;2.00;;;;;24.94;58.68;100915.72;4859525;29;47033;-46
2021/06/28 11:30:35;;;;;;;;;1.00;1.00;;;;;25.13;58.60;100909.84;4849897;29;45332;-45
2021/06/28 11:33:06;;;;;;;;;2.00;2.00;;;;;25.36;58.56;100907.31;4850346;29;45165;-49
2021/06/28 11:35:39;;;;;;;;;2.00;2.00;;;;;25.59;58.97;100918.19;4849781;29;45410;-45
2021/06/28 11:38:26;;;;;;;;;1.00;0.75;;;;;25.81;58.71;100906.69;4849214;29;46176;-49
2021/06/28 11:40:55;;;;;;;;;1.00;1.00;;;;;26.04;58.60;100912.97;4849710;29;45465;-48
2021/06/28 11:43:35;;;;;;;;;1.00;1.00;;;;;26.22;58.27;100902.63;4849704;29;45417;-47
2021/06/28 11:46:02;;;;;;;;;2.00;2.00;;;;;26.37;57.59;100910.50;4849264;29;45393;-48
2021/06/28 11:48:37;;;;;;;;;2.25;1.00;;;;;26.44;57.85;100907.22;4849519;29;45403;-46
2021/06/28 11:51:19;;;;;;;;;2.00;2.00;;;;;26.54;57.75;100915.44;4874526;29;45297;-44
2021/06/28 11:53:56;;;;;;;;;1.00;1.00;;;;;26.58;56.88;100913.34;4849379;29;45232;-45
2021/06/28 11:56:34;;;;;;;;;2.00;1.00;;;;;26.58;57.01;100913.34;4849742;29;45257;-47
2021/06/28 11:59:06;;;;;;;;;1.00;1.00;;;;;26.61;56.85;100918.47;4852753;29;45463;-48
2021/06/28 12:01:37;;;;;;;;;1.67;1.00;;;;;26.61;56.65;100913.94;4875565;29;45434;-48
2021/06/28 12:04:05;;;;;;;;;1.00;1.00;;;;;26.63;56.64;100908.44;4862718;29;45325;-44
2021/06/28 12:06:34;;;;;;;;;1.00;1.00;;;;;26.62;56.10;100895.94;4849367;29;45455;-47
2021/06/28 12:09:24;;;;;;;;;1.50;1.50;;;;;26.67;55.75;100896.44;4849004;29;46176;-46
2021/06/28 12:11:56;;;;;;;;;1.75;1.75;;;;;26.70;56.46;100896.19;4844068;29;45408;-47
2021/06/28 12:14:28;;;;;;;;;2.25;2.00;;;;;26.74;56.03;100899.53;4849498;29;45335;-45
2021/06/28 12:16:53;;;;;;;;;2.00;2.00;;;;;26.79;56.05;100894.63;4848905;29;45404;-45
2021/06/28 12:19:18;;;;;;;;;0.50;0.50;;;;;26.81;55.99;100894.50;4847784;29;48146;-46
2021/06/28 12:21:44;;;;;;;;;1.00;1.00;;;;;26.89;55.70;100902.81;4848987;29;45385;-49
2021/06/28 12:24:15;;;;;;;;;1.00;1.00;;;;;26.96;56.46;100906.75;4850712;29;45365;-45
2021/06/28 12:26:58;;;;;;;;;1.75;1.75;;;;;27.05;55.75;100900.59;4877546;29;45330;-49
2021/06/28 12:29:33;;;;;;;;;1.00;1.00;;;;;27.08;55.79;100899.47;4848907;29;45460;-47
2021/06/28 12:32:00;;;;;;;;;1.00;1.00;;;;;27.13;55.43;100901.81;4849210;29;45289;-45
2021/06/28 12:34:25;;;;;;;;;1.00;1.00;;;;;27.14;55.21;100890.88;4849240;29;45615;-46
2021/06/28 12:36:51;;;;;;;;;1.00;1.00;;;;;27.17;55.24;100898.75;4848894;29;45336;-48
2021/06/28 12:39:28;;;;;;;;;3.75;3.00;;;;;27.19;55.03;100891.38;4848570;29;46274;-49
2021/06/28 12:41:54;;;;;;;;;1.50;1.50;;;;;27.21;55.47;100892.09;4848827;29;45441;-47
2021/06/28 12:44:22;;;;;;;;;2.50;2.50;;;;;27.17;54.84;100884.38;4848705;29;45456;-49
2021/06/28 12:46:48;;;;;;;;;3.00;3.00;;;;;27.19;54.34;100885.97;4847753;29;45436;-50
2021/06/28 12:49:14;;;;;;;;;1.50;1.50;;;;;27.22;54.85;100884.84;4847155;29;47065;-45
2021/06/28 12:51:40;;;;;;;;;3.00;2.00;;;;;27.28;54.45;100886.22;4848692;29;45476;-47
2021/06/28 12:54:26;;;;;;;;;2.00;1.00;;;;;27.30;54.49;100887.78;4847300;29;45403;-45
2021/06/28 12:56:52;;;;;;;;;1.00;1.00;;;;;27.32;54.34;100884.97;4848495;29;45362;-44
2021/06/28 12:59:38;;;;;;;;;1.50;1.50;;;;;27.31;54.46;100894.91;4856582;29;46294;-45
2021/06/28 13:02:04;;;;;;;;;2.00;2.00;;;;;27.32;54.86;100876.88;4857955;29;45416;-45
2021/06/28 13:04:30;;;;;;;;;2.00;1.75;;;;;27.30;54.55;100873.47;4848669;29;45432;-45
2021/06/28 13:06:59;;;;;;;;;3.00;2.00;;;;;27.33;54.52;100876.75;4848395;29;45491;-46
2021/06/28 13:09:30;;;;;;;;;1.25;1.00;;;;;27.38;54.29;100873.66;4848234;29;46153;-45
2021/06/28 13:11:57;;;;;;;;;4.75;3.00;;;;;27.46;54.21;100870.34;4847965;29;45289;-45
2021/06/28 13:14:31;;;;;;;;;2.25;2.25;;;;;27.54;53.91;100865.19;4848596;29;45336;-47
2021/06/28 13:17:31;;;;;;;;;1.00;1.00;;;;;27.57;53.71;100868.47;4847046;29;45512;-48
2021/06/28 13:19:57;;;;;;;;;1.00;1.00;;;;;27.66;53.73;100868.66;4872244;29;45994;-47
2021/06/28 13:22:23;;;;;;;;;1.00;1.00;;;;;27.70;53.58;100873.69;4847046;29;45406;-48
2021/06/28 13:24:54;;;;;;;;;1.25;1.25;;;;;27.74;53.96;100868.88;4851965;29;45401;-49
2021/06/28 13:27:27;;;;;;;;;1.25;1.25;;;;;27.79;53.71;100858.53;4847967;29;45519;-47
2021/06/28 13:29:53;;;;;;;;;2.25;2.00;;;;;27.88;53.24;100865.00;4851329;29;45360;-44
2021/06/28 13:32:18;;;;;;;;;2.00;2.00;;;;;28.01;52.97;100864.78;4868746;29;45272;-44
2021/06/28 13:34:46;;;;;;;;;1.25;1.25;;;;;28.12;53.42;100866.59;4848215;29;45433;-47
2021/06/28 13:37:19;;;;;;;;;2.25;1.50;;;;;28.30;53.09;100858.72;4848162;29;45256;-45
2021/06/28 13:39:57;;;;;;;;;1.00;1.00;;;;;28.52;53.33;100863.13;4847608;29;45320;-45
2021/06/28 13:42:40;;;;;;;;;2.00;1.00;;;;;28.68;52.80;100865.34;4847712;29;45346;-45
2021/06/28 13:45:08;;;;;;;;;2.00;2.00;;;;;28.89;53.02;100867.94;4848127;29;45419;-46
2021/06/28 13:47:48;;;;;;;;;4.00;1.00;;;;;29.06;53.23;100863.72;4847765;29;45335;-46
2021/06/28 13:50:14;;;;;;;;;2.25;1.75;;;;;29.21;53.30;100857.91;4847677;29;46229;-47
2021/06/28 13:52:40;;;;;;;;;2.00;1.00;;;;;29.30;53.17;100857.09;4847706;29;45373;-45
2021/06/28 13:55:06;;;;;;;;;1.00;1.00;;;;;29.39;52.77;100861.66;4847775;29;45322;-46
2021/06/28 13:57:31;;;;;;;;;1.50;1.50;;;;;29.44;52.85;100845.84;4847730;29;45265;-45
2021/06/28 13:59:56;;;;;;;;;5.25;2.25;;;;;29.47;52.66;100850.09;4866013;29;45540;-45
2021/06/28 14:02:22;;;;;;;;;1.50;1.50;;;;;29.45;52.62;100861.09;4867474;29;45330;-47
2021/06/28 14:04:47;;;;;;;;;1.00;1.00;;;;;29.40;52.80;100846.28;4856934;29;45305;-45
2021/06/28 14:07:12;;;;;;;;;2.00;2.00;;;;;29.39;52.24;100849.97;4847493;29;45411;-45
2021/06/28 14:09:38;;;;;;;;;2.50;2.00;;;;;29.35;52.42;100852.13;4847336;29;46285;-44
2021/06/28 14:12:04;;;;;;;;;2.75;1.25;;;;;29.28;52.11;100857.25;4847230;29;45322;-45
2021/06/28 14:14:30;;;;;;;;;1.25;1.25;;;;;29.22;52.22;100843.38;4847824;29;45361;-45
2021/06/28 14:16:56;;;;;;;;;2.00;2.00;;;;;29.22;52.24;100854.19;4847589;29;46427;-44
2021/06/28 14:19:21;;;;;;;;;1.00;1.00;;;;;29.21;52.24;100847.06;4847302;29;45345;-47
2021/06/28 14:21:47;;;;;;;;;1.00;1.00;;;;;29.26;52.04;100847.50;4847211;29;45253;-47
2021/06/28 14:24:12;;;;;;;;;1.25;1.00;;;;;29.30;52.01;100839.00;4849548;29;45299;-49
2021/06/28 14:26:37;;;;;;;;;3.50;2.00;;;;;29.35;51.80;100841.28;4873569;29;45247;-44
2021/06/28 14:29:03;;;;;;;;;2.00;2.00;;;;;29.39;51.30;100844.56;4847358;29;45232;-45
2021/06/28 14:31:29;;;;;;;;;3.00;2.00;;;;;29.54;51.36;100828.75;4845946;29;45353;-49
2021/06/28 14:33:55;;;;;;;;;1.00;1.00;;;;;29.76;51.57;100827.56;4847986;29;45185;-48
2021/06/28 14:36:20;;;;;;;;;2.00;2.00;;;;;29.99;51.49;100830.84;4847026;29;45305;-46
2021/06/28 14:38:45;;;;;;;;;2.25;2.25;;;;;30.26;51.51;100823.75;4859298;29;46023;-47
2021/06/28 14:41:11;;;;;;;;;2.00;2.00;;;;;30.56;51.55;100824.53;4864521;29;45374;-48
2021/06/28 14:43:36;;;;;;;;;2.50;2.50;;;;;30.80;51.44;100841.09;4865658;29;45412;-46
2021/06/28 14:46:02;;;;;;;;;2.00;2.00;;;;;31.02;51.57;100827.22;4865442;29;45397;-46
2021/06/28 14:48:27;;;;;;;;;1.00;1.00;;;;;31.19;50.70;100818.28;4864578;29;45902;-48
2021/06/28 14:50:54;;;;;;;;;2.25;2.25;;;;;31.30;50.70;100824.50;4865392;29;45428;-45
2021/06/28 14:53:19;;;;;;;;;1.00;1.00;;;;;31.34;51.29;100820.47;4865579;29;45452;-45
2021/06/28 14:55:45;;;;;;;;;2.00;2.00;;;;;31.41;50.98;100825.09;4858789;29;45226;-48
2021/06/28 14:58:11;;;;;;;;;0.50;0.50;;;;;31.52;51.00;100824.03;4865438;29;46011;-45
2021/06/28 15:00:37;;;;;;;;;1.25;1.25;;;;;31.63;50.53;100817.50;4865563;29;45284;-45
2021/06/28 15:03:04;;;;;;;;;5.25;2.50;;;;;31.79;50.21;100814.06;4864565;29;45493;-48
2021/06/28 15:05:30;;;;;;;;;1.75;1.75;;;;;31.88;50.67;100815.81;4864403;29;45282;-45
2021/06/28 15:07:56;;;;;;;;;0.75;0.75;;;;;31.97;49.54;100824.84;4863872;29;45542;-44
2021/06/28 15:10:21;;;;;;;;;2.00;2.00;;;;;32.05;49.95;100816.78;4865453;29;45287;-47
2021/06/28 15:12:46;;;;;;;;;2.00;2.00;;;;;32.12;49.73;100811.53;4864548;29;45241;-45
2021/06/28 15:15:14;;;;;;;;;4.25;3.25;;;;;32.17;49.77;100813.78;4864043;29;45321;-44
2021/06/28 15:17:39;;;;;;;;;2.50;2.50;;;;;32.21;49.73;100815.19;4865731;29;46995;-46
2021/06/28 15:20:05;;;;;;;;;2.00;2.00;;;;;32.24;49.76;100809.44;4863890;29;45274;-48
2021/06/28 15:22:31;;;;;;;;;2.00;2.00;;;;;32.23;49.97;100811.28;4865201;29;45295;-46
2021/06/28 15:24:56;;;;;;;;;2.50;1.75;;;;;32.19;50.08;100809.91;4862662;29;46190;-47
2021/06/28 15:27:22;;;;;;;;;4.00;2.75;;;;;32.09;50.00;100799.13;4864823;29;46566;-45
2021/06/28 15:29:47;;;;;;;;;2.00;2.00;;;;;32.03;49.44;100807.91;4865222;29;45467;-45
2021/06/28 15:32:13;;;;;;;;;2.00;2.00;;;;;31.89;50.10;100800.38;4860652;29;45604;-45
2021/06/28 15:34:40;;;;;;;;;3.50;2.50;;;;;31.71;49.75;100798.56;4858257;29;45463;-45
2021/06/28 15:37:05;;;;;;;;;1.00;0.75;;;;;31.53;49.38;100793.13;4866054;29;46086;-44
2021/06/28 15:39:31;;;;;;;;;1.00;1.00;;;;;31.36;49.10;100799.41;4865006;29;45401;-45
2021/06/28 15:41:56;;;;;;;;;1.00;1.00;;;;;31.19;49.28;100787.59;4865083;29;45459;-46
2021/06/28 15:44:22;;;;;;;;;1.00;1.00;;;;;30.99;49.36;100795.00;4865021;29;45273;-48
2021/06/28 15:46:47;;;;;;;;;2.00;2.00;;;;;30.82;48.81;100794.81;4863683;29;46161;-49
2021/06/28 15:49:16;;;;;;;;;2.00;2.00;;;;;30.62;49.11;100796.81;4865016;29;45515;-46
2021/06/28 15:51:41;;;;;;;;;3.00;3.00;;;;;30.41;49.28;100797.03;4866537;29;45292;-46
2021/06/28 15:54:08;;;;;;;;;1.00;1.00;;;;;30.21;49.21;100796.25;4868220;29;45222;-45
2021/06/28 15:56:33;;;;;;;;;1.00;1.00;;;;;30.02;49.10;100789.91;4867211;29;47097;-44
2021/06/28 15:58:59;;;;;;;;;3.25;1.50;;;;;29.83;49.12;100788.94;4866238;29;45322;-46
2021/06/28 16:01:30;;;;;;;;;2.00;2.00;;;;;29.67;49.30;100788.69;4866904;29;45396;-44
2021/06/28 16:03:56;;;;;;;;;1.75;1.75;;;;;29.48;48.96;100790.44;4868110;29;45415;-44
2021/06/28 16:06:21;;;;;;;;;2.25;2.25;;;;;29.28;49.45;100783.28;4868151;29;46029;-46
2021/06/28 16:08:47;;;;;;;;;2.25;2.25;;;;;29.11;49.09;100779.47;4867528;29;45331;-47
2021/06/28 16:11:12;;;;;;;;;1.50;1.50;;;;;28.86;49.42;100774.44;4866962;29;45425;-45
2021/06/28 16:13:37;;;;;;;;;2.00;2.00;;;;;28.69;49.58;100767.00;4867719;29;45270;-47
2021/06/28 16:16:03;;;;;;;;;2.00;2.00;;;;;28.52;50.02;100761.25;4867728;29;46050;-49
2021/06/28 16:18:28;;;;;;;;;3.00;2.50;;;;;28.36;49.76;100752.81;4867635;29;45409;-47
2021/06/28 16:20:54;;;;;;;;;2.75;2.75;;;;;28.19;49.55;100760.59;4867993;29;45349;-46
2021/06/28 16:23:20;;;;;;;;;1.25;1.25;;;;;28.02;50.07;100753.94;4867193;29;45182;-47
2021/06/28 16:25:46;;;;;;;;;2.25;2.25;;;;;27.87;50.02;100747.19;4866216;29;46123;-49
2021/06/28 16:28:11;;;;;;;;;2.00;2.00;;;;;27.74;50.20;100756.34;4865228;29;45459;-45
2021/06/28 16:30:36;;;;;;;;;2.00;1.00;;;;;27.63;49.90;100753.75;4867481;29;45526;-46
2021/06/28 16:33:02;;;;;;;;;2.25;1.75;;;;;27.49;50.52;100759.47;4877696;29;45487;-45
2021/06/28 16:35:27;;;;;;;;;2.00;2.00;;;;;27.37;50.15;100755.94;4866822;29;46391;-46
2021/06/28 16:37:53;;;;;;;;;0.50;0.50;;;;;27.26;50.38;100762.25;4865879;29;45833;-49
2021/06/28 16:40:24;;;;;;;;;2.00;2.00;;;;;27.15;50.84;100763.16;4869169;29;45362;-50
2021/06/28 16:42:50;;;;;;;;;1.75;1.75;;;;;27.01;50.81;100752.69;4861928;29;45596;-45
2021/06/28 16:45:16;;;;;;;;;2.00;1.00;;;;;26.92;50.71;100751.63;4870270;29;45445;-46
2021/06/28 16:47:41;;;;;;;;;4.50;3.00;;;;;26.86;50.72;100763.75;4867411;29;45321;-50
2021/06/28 16:50:07;;;;;;;;;1.25;1.25;;;;;26.78;51.14;100760.84;4861336;29;45305;-45
2021/06/28 16:52:32;;;;;;;;;1.75;1.75;;;;;26.71;51.17;100760.47;4867640;29;45508;-49
2021/06/28 16:54:58;;;;;;;;;2.00;2.00;;;;;26.64;51.18;100755.69;4867076;29;45438;-45
2021/06/28 16:57:25;;;;;;;;;2.00;2.00;;;;;26.56;51.04;100751.78;4867272;29;45256;-45
2021/06/28 16:59:51;;;;;;;;;3.00;2.00;;;;;26.51;50.75;100739.69;4867420;29;45341;-45
2021/06/28 17:02:16;;;;;;;;;3.00;3.00;;;;;26.46;51.16;100734.66;4866583;29;45541;-44
2021/06/28 17:04:42;;;;;;;;;4.50;4.50;;;;;26.49;51.22;100725.47;4866508;29;45519;-45
2021/06/28 17:07:07;;;;;;;;;4.00;3.00;;;;;26.59;51.65;100719.22;4867432;29;45214;-47
2021/06/28 17:09:32;;;;;;;;;2.00;2.00;;;;;26.73;51.62;100709.16;4874980;29;45429;-44
2021/06/28 17:11:58;;;;;;;;;2.00;2.00;;;;;26.86;51.18;100700.91;4866076;29;45280;-46
2021/06/28 17:14:23;;;;;;;;;2.00;2.00;;;;;26.99;51.48;100698.88;4862724;29;45348;-46
2021/06/28 17:16:49;;;;;;;;;2.00;2.00;;;;;27.11;51.77;100688.91;4856935;29;45210;-45
2021/06/28 17:19:14;;;;;;;;;1.00;1.00;;;;;27.22;52.07;100690.66;4865336;29;45264;-46
2021/06/28 17:21:40;;;;;;;;;1.00;1.00;;;;;27.29;51.67;100686.47;4867175;29;45377;-46
2021/06/28 17:24:05;;;;;;;;;2.00;2.00;;;;;27.37;51.35;100692.06;4863778;29;46002;-44
2021/06/28 17:26:31;;;;;;;;;3.00;2.00;;;;;27.41;51.19;100701.63;4864998;29;45758;-46
2021/06/28 17:28:57;;;;;;;;;3.00;3.00;;;;;27.44;51.92;100714.00;4866616;29;45396;-47
2021/06/28 17:31:23;;;;;;;;;2.00;2.00;;;;;27.45;51.83;100723.81;4866765;29;45387;-44
2021/06/28 17:33:48;;;;;;;;;2.25;2.25;;;;;27.41;51.69;100725.06;4865232;29;45273;-46